sensor_id;sensor_type;location;lat;lon;timestamp;P1;durP1;ratioP1;P2;durP2;ratioP2
15110;SDS011;7656;51.954;7.998;2022-12-07T00:03:34;11.10;;;8.00;;
15110;SDS011;7656;51.954;7.998;2022-12-07T00:07:56;13.33;;;8.40;;
15110;SDS011;7656;51.954;7.998;2022-12-07T00:12:17;10.10;;;8.13;;
15110;SDS011;7656;51.954;7.998;2022-12-07T00:16:38;10.47;;;8.03;;
15110;SDS011;7656;51.954;7.998;2022-12-07T00:21:00;9.60;;;7.63;;
15110;SDS011;7656;51.954;7.998;2022-12-07T00:25:27;11.53;;;8.23;;
15110;SDS011;7656;51.954;7.998;2022-12-07T00:29:50;9.60;;;7.50;;
15110;SDS011;7656;51.954;7.998;2022-12-07T00:34:12;8.67;;;7.03;;
15110;SDS011;7656;51.954;7.998;2022-12-07T00:38:36;9.07;;;6.53;;
15110;SDS011;7656;51.954;7.998;2022-12-07T00:42:59;10.87;;;7.30;;
15110;SDS011;7656;51.954;7.998;2022-12-07T00:47:20;7.10;;;6.17;;
15110;SDS011;7656;51.954;7.998;2022-12-07T00:51:41;9.37;;;7.33;;
15110;SDS011;7656;51.954;7.998;2022-12-07T00:56:09;8.03;;;6.10;;
15110;SDS011;7656;51.954;7.998;2022-12-07T01:00:45;7.63;;;6.63;;
15110;SDS011;7656;51.954;7.998;2022-12-07T01:05:06;7.97;;;6.60;;
15110;SDS011;7656;51.954;7.998;2022-12-07T01:09:28;8.30;;;6.20;;
15110;SDS011;7656;51.954;7.998;2022-12-07T01:13:50;6.07;;;5.47;;
15110;SDS011;7656;51.954;7.998;2022-12-07T01:18:13;7.57;;;6.53;;
15110;SDS011;7656;51.954;7.998;2022-12-07T01:22:37;9.80;;;5.40;;
15110;SDS011;7656;51.954;7.998;2022-12-07T01:26:59;6.77;;;5.47;;
15110;SDS011;7656;51.954;7.998;2022-12-07T01:31:21;6.23;;;5.20;;
15110;SDS011;7656;51.954;7.998;2022-12-07T01:35:45;9.30;;;5.63;;
15110;SDS011;7656;51.954;7.998;2022-12-07T01:40:06;6.73;;;5.70;;
15110;SDS011;7656;51.954;7.998;2022-12-07T01:44:29;6.77;;;4.87;;
15110;SDS011;7656;51.954;7.998;2022-12-07T01:48:52;5.77;;;5.17;;
15110;SDS011;7656;51.954;7.998;2022-12-07T01:53:13;5.40;;;4.90;;
15110;SDS011;7656;51.954;7.998;2022-12-07T01:57:36;8.07;;;5.20;;
15110;SDS011;7656;51.954;7.998;2022-12-07T02:02:01;6.90;;;4.90;;
15110;SDS011;7656;51.954;7.998;2022-12-07T02:06:24;6.53;;;5.00;;
15110;SDS011;7656;51.954;7.998;2022-12-07T02:10:47;5.90;;;5.20;;
15110;SDS011;7656;51.954;7.998;2022-12-07T02:15:08;7.83;;;5.07;;
15110;SDS011;7656;51.954;7.998;2022-12-07T02:19:50;5.83;;;5.07;;
15110;SDS011;7656;51.954;7.998;2022-12-07T02:24:42;8.43;;;4.90;;
15110;SDS011;7656;51.954;7.998;2022-12-07T02:29:49;5.67;;;5.10;;
15110;SDS011;7656;51.954;7.998;2022-12-07T02:34:48;6.80;;;4.57;;
15110;SDS011;7656;51.954;7.998;2022-12-07T02:39:19;7.07;;;5.53;;
15110;SDS011;7656;51.954;7.998;2022-12-07T02:44:07;6.77;;;5.10;;
15110;SDS011;7656;51.954;7.998;2022-12-07T02:48:33;7.87;;;5.10;;
15110;SDS011;7656;51.954;7.998;2022-12-07T02:52:54;5.10;;;4.60;;
15110;SDS011;7656;51.954;7.998;2022-12-07T02:57:21;6.90;;;4.83;;
15110;SDS011;7656;51.954;7.998;2022-12-07T03:02:21;10.23;;;4.87;;
15110;SDS011;7656;51.954;7.998;2022-12-07T03:06:53;6.27;;;4.87;;
15110;SDS011;7656;51.954;7.998;2022-12-07T03:11:36;7.77;;;5.00;;
15110;SDS011;7656;51.954;7.998;2022-12-07T03:20:51;5.30;;;4.23;;
15110;SDS011;7656;51.954;7.998;2022-12-07T03:25:17;5.43;;;4.53;;
15110;SDS011;7656;51.954;7.998;2022-12-07T03:29:43;8.13;;;4.40;;
15110;SDS011;7656;51.954;7.998;2022-12-07T03:34:19;9.63;;;4.90;;
15110;SDS011;7656;51.954;7.998;2022-12-07T03:38:57;6.87;;;4.87;;
15110;SDS011;7656;51.954;7.998;2022-12-07T03:43:23;11.87;;;5.70;;
15110;SDS011;7656;51.954;7.998;2022-12-07T03:48:02;6.83;;;4.40;;
15110;SDS011;7656;51.954;7.998;2022-12-07T03:52:47;5.80;;;4.90;;
15110;SDS011;7656;51.954;7.998;2022-12-07T03:57:17;6.33;;;4.10;;
15110;SDS011;7656;51.954;7.998;2022-12-07T04:01:41;5.43;;;3.70;;
15110;SDS011;7656;51.954;7.998;2022-12-07T04:06:04;5.37;;;4.13;;
15110;SDS011;7656;51.954;7.998;2022-12-07T04:10:26;8.00;;;4.97;;
15110;SDS011;7656;51.954;7.998;2022-12-07T04:14:47;6.70;;;4.43;;
15110;SDS011;7656;51.954;7.998;2022-12-07T04:19:08;7.73;;;4.30;;
15110;SDS011;7656;51.954;7.998;2022-12-07T04:23:29;8.73;;;4.17;;
15110;SDS011;7656;51.954;7.998;2022-12-07T04:27:50;7.30;;;4.23;;
15110;SDS011;7656;51.954;7.998;2022-12-07T04:32:11;6.20;;;4.33;;
15110;SDS011;7656;51.954;7.998;2022-12-07T04:36:32;6.33;;;3.77;;
15110;SDS011;7656;51.954;7.998;2022-12-07T04:40:53;9.73;;;4.57;;
15110;SDS011;7656;51.954;7.998;2022-12-07T04:45:14;7.53;;;4.33;;
15110;SDS011;7656;51.954;7.998;2022-12-07T04:49:35;4.17;;;3.77;;
15110;SDS011;7656;51.954;7.998;2022-12-07T04:53:56;5.20;;;3.90;;
15110;SDS011;7656;51.954;7.998;2022-12-07T04:58:18;7.83;;;4.27;;
15110;SDS011;7656;51.954;7.998;2022-12-07T05:02:39;5.80;;;3.17;;
15110;SDS011;7656;51.954;7.998;2022-12-07T05:07:00;7.23;;;3.97;;
15110;SDS011;7656;51.954;7.998;2022-12-07T05:11:21;6.10;;;4.07;;
15110;SDS011;7656;51.954;7.998;2022-12-07T05:16:00;6.10;;;4.30;;
15110;SDS011;7656;51.954;7.998;2022-12-07T05:20:21;6.93;;;4.00;;
15110;SDS011;7656;51.954;7.998;2022-12-07T05:24:42;8.80;;;4.97;;
15110;SDS011;7656;51.954;7.998;2022-12-07T05:29:04;6.60;;;4.53;;
15110;SDS011;7656;51.954;7.998;2022-12-07T05:33:25;8.60;;;4.60;;
15110;SDS011;7656;51.954;7.998;2022-12-07T05:37:46;5.97;;;4.17;;
15110;SDS011;7656;51.954;7.998;2022-12-07T05:42:08;7.57;;;4.13;;
15110;SDS011;7656;51.954;7.998;2022-12-07T05:46:34;7.60;;;4.37;;
15110;SDS011;7656;51.954;7.998;2022-12-07T05:50:55;7.40;;;4.00;;
15110;SDS011;7656;51.954;7.998;2022-12-07T05:55:17;6.07;;;3.90;;
15110;SDS011;7656;51.954;7.998;2022-12-07T05:59:38;4.30;;;3.57;;
15110;SDS011;7656;51.954;7.998;2022-12-07T06:03:59;10.03;;;3.77;;
15110;SDS011;7656;51.954;7.998;2022-12-07T06:08:20;5.90;;;3.50;;
15110;SDS011;7656;51.954;7.998;2022-12-07T06:12:41;5.23;;;3.23;;
15110;SDS011;7656;51.954;7.998;2022-12-07T06:17:03;4.50;;;3.30;;
15110;SDS011;7656;51.954;7.998;2022-12-07T06:21:24;5.67;;;3.57;;
15110;SDS011;7656;51.954;7.998;2022-12-07T06:25:49;6.60;;;4.17;;
15110;SDS011;7656;51.954;7.998;2022-12-07T06:30:10;5.57;;;3.20;;
15110;SDS011;7656;51.954;7.998;2022-12-07T06:34:31;5.20;;;3.10;;
15110;SDS011;7656;51.954;7.998;2022-12-07T06:38:52;4.43;;;2.60;;
15110;SDS011;7656;51.954;7.998;2022-12-07T06:43:14;3.90;;;3.00;;
15110;SDS011;7656;51.954;7.998;2022-12-07T06:47:35;4.03;;;2.47;;
15110;SDS011;7656;51.954;7.998;2022-12-07T06:51:57;6.90;;;3.00;;
15110;SDS011;7656;51.954;7.998;2022-12-07T06:56:18;6.03;;;3.27;;
15110;SDS011;7656;51.954;7.998;2022-12-07T07:00:39;8.93;;;3.93;;
15110;SDS011;7656;51.954;7.998;2022-12-07T07:05:01;6.77;;;3.53;;
15110;SDS011;7656;51.954;7.998;2022-12-07T07:09:23;3.67;;;2.33;;
15110;SDS011;7656;51.954;7.998;2022-12-07T07:13:44;4.37;;;2.93;;
15110;SDS011;7656;51.954;7.998;2022-12-07T07:18:05;7.53;;;2.67;;
15110;SDS011;7656;51.954;7.998;2022-12-07T07:22:26;3.73;;;2.00;;
15110;SDS011;7656;51.954;7.998;2022-12-07T07:26:47;4.10;;;3.10;;
15110;SDS011;7656;51.954;7.998;2022-12-07T07:31:08;4.40;;;2.90;;
15110;SDS011;7656;51.954;7.998;2022-12-07T07:35:30;4.43;;;2.80;;
15110;SDS011;7656;51.954;7.998;2022-12-07T07:39:54;5.90;;;3.30;;
15110;SDS011;7656;51.954;7.998;2022-12-07T07:44:15;3.40;;;2.50;;
15110;SDS011;7656;51.954;7.998;2022-12-07T07:48:36;5.53;;;2.70;;
15110;SDS011;7656;51.954;7.998;2022-12-07T07:52:57;3.40;;;2.53;;
15110;SDS011;7656;51.954;7.998;2022-12-07T07:57:18;5.93;;;3.50;;
15110;SDS011;7656;51.954;7.998;2022-12-07T08:01:39;4.73;;;2.93;;
15110;SDS011;7656;51.954;7.998;2022-12-07T08:06:03;7.47;;;3.37;;
15110;SDS011;7656;51.954;7.998;2022-12-07T08:10:25;8.07;;;2.93;;
15110;SDS011;7656;51.954;7.998;2022-12-07T08:14:46;5.93;;;2.70;;
15110;SDS011;7656;51.954;7.998;2022-12-07T08:19:07;8.97;;;3.93;;
15110;SDS011;7656;51.954;7.998;2022-12-07T08:23:28;5.97;;;2.83;;
15110;SDS011;7656;51.954;7.998;2022-12-07T08:27:50;12.43;;;3.33;;
15110;SDS011;7656;51.954;7.998;2022-12-07T08:32:12;10.37;;;3.77;;
15110;SDS011;7656;51.954;7.998;2022-12-07T08:36:33;5.20;;;2.73;;
15110;SDS011;7656;51.954;7.998;2022-12-07T08:40:54;2.67;;;2.30;;
15110;SDS011;7656;51.954;7.998;2022-12-07T08:45:19;3.83;;;2.50;;
15110;SDS011;7656;51.954;7.998;2022-12-07T08:49:42;3.10;;;2.13;;
15110;SDS011;7656;51.954;7.998;2022-12-07T08:54:08;2.83;;;2.10;;
15110;SDS011;7656;51.954;7.998;2022-12-07T08:58:35;7.07;;;2.33;;
15110;SDS011;7656;51.954;7.998;2022-12-07T09:02:57;5.53;;;2.30;;
15110;SDS011;7656;51.954;7.998;2022-12-07T09:07:18;4.60;;;2.40;;
15110;SDS011;7656;51.954;7.998;2022-12-07T09:11:39;2.50;;;2.30;;
15110;SDS011;7656;51.954;7.998;2022-12-07T09:16:00;3.93;;;2.90;;
15110;SDS011;7656;51.954;7.998;2022-12-07T09:20:21;2.33;;;2.03;;
15110;SDS011;7656;51.954;7.998;2022-12-07T09:24:43;2.30;;;1.93;;
15110;SDS011;7656;51.954;7.998;2022-12-07T09:29:05;3.80;;;2.10;;
15110;SDS011;7656;51.954;7.998;2022-12-07T09:33:27;4.47;;;2.00;;
15110;SDS011;7656;51.954;7.998;2022-12-07T09:37:48;8.53;;;2.23;;
15110;SDS011;7656;51.954;7.998;2022-12-07T09:42:10;3.17;;;2.30;;
15110;SDS011;7656;51.954;7.998;2022-12-07T09:46:56;4.97;;;2.10;;
15110;SDS011;7656;51.954;7.998;2022-12-07T09:51:21;6.43;;;2.53;;
15110;SDS011;7656;51.954;7.998;2022-12-07T09:55:44;5.40;;;2.10;;
15110;SDS011;7656;51.954;7.998;2022-12-07T10:00:12;8.23;;;1.90;;
15110;SDS011;7656;51.954;7.998;2022-12-07T10:04:39;3.37;;;2.13;;
15110;SDS011;7656;51.954;7.998;2022-12-07T10:09:01;4.23;;;2.17;;
15110;SDS011;7656;51.954;7.998;2022-12-07T10:13:39;4.80;;;2.20;;
15110;SDS011;7656;51.954;7.998;2022-12-07T10:18:13;5.70;;;2.40;;
15110;SDS011;7656;51.954;7.998;2022-12-07T10:23:15;6.17;;;2.07;;
15110;SDS011;7656;51.954;7.998;2022-12-07T10:27:35;7.37;;;2.27;;
15110;SDS011;7656;51.954;7.998;2022-12-07T10:32:01;3.47;;;2.30;;
15110;SDS011;7656;51.954;7.998;2022-12-07T10:36:48;5.20;;;2.00;;
15110;SDS011;7656;51.954;7.998;2022-12-07T10:41:10;6.30;;;1.87;;
15110;SDS011;7656;51.954;7.998;2022-12-07T10:45:32;1.93;;;1.60;;
15110;SDS011;7656;51.954;7.998;2022-12-07T10:55:16;4.30;;;1.67;;
15110;SDS011;7656;51.954;7.998;2022-12-07T11:00:43;4.80;;;1.40;;
15110;SDS011;7656;51.954;7.998;2022-12-07T11:05:39;5.13;;;1.67;;
15110;SDS011;7656;51.954;7.998;2022-12-07T11:15:36;3.27;;;1.50;;
15110;SDS011;7656;51.954;7.998;2022-12-07T11:25:13;1.73;;;1.20;;
15110;SDS011;7656;51.954;7.998;2022-12-07T11:34:39;3.63;;;2.03;;
15110;SDS011;7656;51.954;7.998;2022-12-07T11:39:42;1.90;;;1.47;;
15110;SDS011;7656;51.954;7.998;2022-12-07T11:44:31;4.43;;;1.93;;
15110;SDS011;7656;51.954;7.998;2022-12-07T11:49:04;6.57;;;1.50;;
15110;SDS011;7656;51.954;7.998;2022-12-07T11:53:41;5.13;;;1.10;;
15110;SDS011;7656;51.954;7.998;2022-12-07T12:03:27;4.53;;;1.30;;
15110;SDS011;7656;51.954;7.998;2022-12-07T12:08:03;3.47;;;1.30;;
15110;SDS011;7656;51.954;7.998;2022-12-07T12:17:41;4.30;;;1.70;;
15110;SDS011;7656;51.954;7.998;2022-12-07T12:22:37;3.97;;;1.37;;
15110;SDS011;7656;51.954;7.998;2022-12-07T12:27:04;3.43;;;1.20;;
15110;SDS011;7656;51.954;7.998;2022-12-07T12:31:37;3.83;;;1.57;;
15110;SDS011;7656;51.954;7.998;2022-12-07T12:40:54;2.57;;;1.10;;
15110;SDS011;7656;51.954;7.998;2022-12-07T12:45:25;2.27;;;1.10;;
15110;SDS011;7656;51.954;7.998;2022-12-07T12:50:12;8.27;;;1.53;;
15110;SDS011;7656;51.954;7.998;2022-12-07T12:54:36;4.50;;;1.50;;
15110;SDS011;7656;51.954;7.998;2022-12-07T13:03:51;3.73;;;1.40;;
15110;SDS011;7656;51.954;7.998;2022-12-07T13:08:18;2.20;;;0.97;;
15110;SDS011;7656;51.954;7.998;2022-12-07T13:12:54;4.07;;;1.07;;
15110;SDS011;7656;51.954;7.998;2022-12-07T13:21:55;4.43;;;1.10;;
15110;SDS011;7656;51.954;7.998;2022-12-07T13:31:03;2.30;;;0.97;;
15110;SDS011;7656;51.954;7.998;2022-12-07T13:35:53;2.37;;;1.03;;
15110;SDS011;7656;51.954;7.998;2022-12-07T13:40:20;4.83;;;0.87;;
15110;SDS011;7656;51.954;7.998;2022-12-07T13:44:43;4.73;;;1.13;;
15110;SDS011;7656;51.954;7.998;2022-12-07T13:49:04;5.13;;;1.10;;
15110;SDS011;7656;51.954;7.998;2022-12-07T13:53:52;5.83;;;1.30;;
15110;SDS011;7656;51.954;7.998;2022-12-07T13:58:22;1.43;;;0.93;;
15110;SDS011;7656;51.954;7.998;2022-12-07T14:07:25;3.60;;;1.37;;
15110;SDS011;7656;51.954;7.998;2022-12-07T14:11:49;3.67;;;1.03;;
15110;SDS011;7656;51.954;7.998;2022-12-07T14:16:20;4.87;;;1.97;;
15110;SDS011;7656;51.954;7.998;2022-12-07T14:21:02;2.57;;;1.60;;
15110;SDS011;7656;51.954;7.998;2022-12-07T14:25:48;2.70;;;1.30;;
15110;SDS011;7656;51.954;7.998;2022-12-07T14:30:15;4.10;;;1.23;;
15110;SDS011;7656;51.954;7.998;2022-12-07T14:34:38;3.47;;;1.40;;
15110;SDS011;7656;51.954;7.998;2022-12-07T14:38:59;4.67;;;1.87;;
15110;SDS011;7656;51.954;7.998;2022-12-07T14:43:20;3.63;;;1.80;;
15110;SDS011;7656;51.954;7.998;2022-12-07T14:47:41;2.43;;;1.60;;
15110;SDS011;7656;51.954;7.998;2022-12-07T14:52:04;2.97;;;1.57;;
15110;SDS011;7656;51.954;7.998;2022-12-07T14:56:34;2.27;;;1.40;;
15110;SDS011;7656;51.954;7.998;2022-12-07T15:00:55;4.37;;;2.13;;
15110;SDS011;7656;51.954;7.998;2022-12-07T15:05:16;7.13;;;2.00;;
15110;SDS011;7656;51.954;7.998;2022-12-07T15:09:38;3.90;;;1.90;;
15110;SDS011;7656;51.954;7.998;2022-12-07T15:13:59;4.37;;;2.00;;
15110;SDS011;7656;51.954;7.998;2022-12-07T15:18:31;3.83;;;1.93;;
15110;SDS011;7656;51.954;7.998;2022-12-07T15:22:52;4.97;;;2.13;;
15110;SDS011;7656;51.954;7.998;2022-12-07T15:27:13;5.87;;;1.73;;
15110;SDS011;7656;51.954;7.998;2022-12-07T15:31:34;3.07;;;1.50;;
15110;SDS011;7656;51.954;7.998;2022-12-07T15:35:55;3.80;;;1.63;;
15110;SDS011;7656;51.954;7.998;2022-12-07T15:40:19;1.83;;;1.50;;
15110;SDS011;7656;51.954;7.998;2022-12-07T15:44:40;3.73;;;1.43;;
15110;SDS011;7656;51.954;7.998;2022-12-07T15:49:20;5.60;;;1.47;;
15110;SDS011;7656;51.954;7.998;2022-12-07T15:53:41;2.10;;;1.30;;
15110;SDS011;7656;51.954;7.998;2022-12-07T15:58:02;3.07;;;1.27;;
15110;SDS011;7656;51.954;7.998;2022-12-07T16:02:23;1.67;;;1.57;;
15110;SDS011;7656;51.954;7.998;2022-12-07T16:06:45;6.23;;;1.53;;
15110;SDS011;7656;51.954;7.998;2022-12-07T16:11:06;3.87;;;1.73;;
15110;SDS011;7656;51.954;7.998;2022-12-07T16:15:27;4.37;;;1.33;;
15110;SDS011;7656;51.954;7.998;2022-12-07T16:19:48;3.37;;;1.20;;
15110;SDS011;7656;51.954;7.998;2022-12-07T16:24:09;3.33;;;1.63;;
15110;SDS011;7656;51.954;7.998;2022-12-07T16:28:31;2.60;;;1.97;;
15110;SDS011;7656;51.954;7.998;2022-12-07T16:32:52;4.53;;;1.50;;
15110;SDS011;7656;51.954;7.998;2022-12-07T16:37:13;1.80;;;1.57;;
15110;SDS011;7656;51.954;7.998;2022-12-07T16:41:34;3.17;;;1.70;;
15110;SDS011;7656;51.954;7.998;2022-12-07T16:45:55;3.57;;;1.93;;
15110;SDS011;7656;51.954;7.998;2022-12-07T16:50:16;4.47;;;1.80;;
15110;SDS011;7656;51.954;7.998;2022-12-07T16:54:37;5.13;;;2.10;;
15110;SDS011;7656;51.954;7.998;2022-12-07T16:58:58;4.47;;;1.70;;
15110;SDS011;7656;51.954;7.998;2022-12-07T17:03:19;4.60;;;2.30;;
15110;SDS011;7656;51.954;7.998;2022-12-07T17:07:40;2.83;;;1.70;;
15110;SDS011;7656;51.954;7.998;2022-12-07T17:12:02;4.10;;;1.97;;
15110;SDS011;7656;51.954;7.998;2022-12-07T17:16:23;5.23;;;2.30;;
15110;SDS011;7656;51.954;7.998;2022-12-07T17:20:44;3.63;;;2.23;;
15110;SDS011;7656;51.954;7.998;2022-12-07T17:25:05;5.77;;;3.03;;
15110;SDS011;7656;51.954;7.998;2022-12-07T17:29:27;7.03;;;3.83;;
15110;SDS011;7656;51.954;7.998;2022-12-07T17:33:48;4.77;;;2.93;;
15110;SDS011;7656;51.954;7.998;2022-12-07T17:38:09;9.60;;;2.90;;
15110;SDS011;7656;51.954;7.998;2022-12-07T17:42:30;12.43;;;3.17;;
15110;SDS011;7656;51.954;7.998;2022-12-07T17:46:57;7.07;;;3.37;;
15110;SDS011;7656;51.954;7.998;2022-12-07T17:51:19;5.40;;;2.83;;
15110;SDS011;7656;51.954;7.998;2022-12-07T17:55:58;5.37;;;3.07;;
15110;SDS011;7656;51.954;7.998;2022-12-07T18:00:19;5.47;;;2.43;;
15110;SDS011;7656;51.954;7.998;2022-12-07T18:04:40;3.80;;;2.83;;
15110;SDS011;7656;51.954;7.998;2022-12-07T18:09:02;5.80;;;2.50;;
15110;SDS011;7656;51.954;7.998;2022-12-07T18:13:23;8.03;;;3.20;;
15110;SDS011;7656;51.954;7.998;2022-12-07T18:17:58;5.93;;;2.60;;
15110;SDS011;7656;51.954;7.998;2022-12-07T18:22:19;5.07;;;3.07;;
15110;SDS011;7656;51.954;7.998;2022-12-07T18:26:40;5.30;;;2.83;;
15110;SDS011;7656;51.954;7.998;2022-12-07T18:31:03;7.73;;;3.27;;
15110;SDS011;7656;51.954;7.998;2022-12-07T18:35:24;4.33;;;3.30;;
15110;SDS011;7656;51.954;7.998;2022-12-07T18:39:45;6.47;;;3.50;;
15110;SDS011;7656;51.954;7.998;2022-12-07T18:44:06;5.27;;;3.30;;
15110;SDS011;7656;51.954;7.998;2022-12-07T18:48:28;5.10;;;3.57;;
15110;SDS011;7656;51.954;7.998;2022-12-07T18:52:49;4.47;;;3.50;;
15110;SDS011;7656;51.954;7.998;2022-12-07T18:57:10;4.73;;;3.77;;
15110;SDS011;7656;51.954;7.998;2022-12-07T19:01:31;4.80;;;3.17;;
15110;SDS011;7656;51.954;7.998;2022-12-07T19:05:52;6.17;;;3.80;;
15110;SDS011;7656;51.954;7.998;2022-12-07T19:10:17;5.30;;;3.60;;
15110;SDS011;7656;51.954;7.998;2022-12-07T19:14:40;6.17;;;4.90;;
15110;SDS011;7656;51.954;7.998;2022-12-07T19:19:01;6.90;;;3.80;;
15110;SDS011;7656;51.954;7.998;2022-12-07T19:23:23;6.73;;;3.93;;
15110;SDS011;7656;51.954;7.998;2022-12-07T19:27:45;5.10;;;3.80;;
15110;SDS011;7656;51.954;7.998;2022-12-07T19:32:07;3.70;;;3.30;;
15110;SDS011;7656;51.954;7.998;2022-12-07T19:36:29;7.23;;;4.27;;
15110;SDS011;7656;51.954;7.998;2022-12-07T19:40:50;9.37;;;3.80;;
15110;SDS011;7656;51.954;7.998;2022-12-07T19:45:11;5.63;;;3.80;;
15110;SDS011;7656;51.954;7.998;2022-12-07T19:49:33;6.20;;;3.50;;
15110;SDS011;7656;51.954;7.998;2022-12-07T19:53:59;4.33;;;3.93;;
15110;SDS011;7656;51.954;7.998;2022-12-07T19:58:21;11.03;;;5.47;;
15110;SDS011;7656;51.954;7.998;2022-12-07T20:02:42;8.33;;;5.00;;
15110;SDS011;7656;51.954;7.998;2022-12-07T20:07:03;8.37;;;5.00;;
15110;SDS011;7656;51.954;7.998;2022-12-07T20:11:24;8.67;;;4.53;;
15110;SDS011;7656;51.954;7.998;2022-12-07T20:16:04;7.33;;;4.40;;
15110;SDS011;7656;51.954;7.998;2022-12-07T20:20:26;6.77;;;4.50;;
15110;SDS011;7656;51.954;7.998;2022-12-07T20:24:47;5.87;;;4.37;;
15110;SDS011;7656;51.954;7.998;2022-12-07T20:29:08;4.57;;;3.70;;
15110;SDS011;7656;51.954;7.998;2022-12-07T20:33:34;7.63;;;4.80;;
15110;SDS011;7656;51.954;7.998;2022-12-07T20:37:55;5.10;;;3.83;;
15110;SDS011;7656;51.954;7.998;2022-12-07T20:42:16;5.83;;;3.97;;
15110;SDS011;7656;51.954;7.998;2022-12-07T20:46:55;4.53;;;4.13;;
15110;SDS011;7656;51.954;7.998;2022-12-07T20:51:16;6.10;;;3.57;;
15110;SDS011;7656;51.954;7.998;2022-12-07T20:55:38;6.37;;;4.50;;
15110;SDS011;7656;51.954;7.998;2022-12-07T20:59:59;6.47;;;3.93;;
15110;SDS011;7656;51.954;7.998;2022-12-07T21:04:21;7.07;;;3.90;;
15110;SDS011;7656;51.954;7.998;2022-12-07T21:08:45;4.53;;;3.67;;
15110;SDS011;7656;51.954;7.998;2022-12-07T21:13:11;4.43;;;3.40;;
15110;SDS011;7656;51.954;7.998;2022-12-07T21:17:32;6.50;;;3.93;;
15110;SDS011;7656;51.954;7.998;2022-12-07T21:21:53;7.00;;;3.97;;
15110;SDS011;7656;51.954;7.998;2022-12-07T21:26:18;6.10;;;3.97;;
15110;SDS011;7656;51.954;7.998;2022-12-07T21:30:43;6.97;;;4.10;;
15110;SDS011;7656;51.954;7.998;2022-12-07T21:35:05;4.43;;;3.60;;
15110;SDS011;7656;51.954;7.998;2022-12-07T21:39:26;4.40;;;3.63;;
15110;SDS011;7656;51.954;7.998;2022-12-07T21:43:47;5.37;;;3.63;;
15110;SDS011;7656;51.954;7.998;2022-12-07T21:48:09;5.33;;;3.97;;
15110;SDS011;7656;51.954;7.998;2022-12-07T21:52:30;5.27;;;3.87;;
15110;SDS011;7656;51.954;7.998;2022-12-07T21:56:51;5.67;;;4.10;;
15110;SDS011;7656;51.954;7.998;2022-12-07T22:01:14;5.50;;;3.53;;
15110;SDS011;7656;51.954;7.998;2022-12-07T22:05:43;5.93;;;3.77;;
15110;SDS011;7656;51.954;7.998;2022-12-07T22:10:05;4.73;;;4.03;;
15110;SDS011;7656;51.954;7.998;2022-12-07T22:14:26;4.83;;;3.90;;
15110;SDS011;7656;51.954;7.998;2022-12-07T22:19:06;6.57;;;3.80;;
15110;SDS011;7656;51.954;7.998;2022-12-07T22:23:30;5.70;;;3.83;;
15110;SDS011;7656;51.954;7.998;2022-12-07T22:27:52;6.83;;;4.50;;
15110;SDS011;7656;51.954;7.998;2022-12-07T22:32:13;5.20;;;3.77;;
15110;SDS011;7656;51.954;7.998;2022-12-07T22:36:34;9.90;;;4.80;;
15110;SDS011;7656;51.954;7.998;2022-12-07T22:40:56;7.33;;;4.63;;
15110;SDS011;7656;51.954;7.998;2022-12-07T22:45:17;8.17;;;4.50;;
15110;SDS011;7656;51.954;7.998;2022-12-07T22:49:38;7.83;;;5.70;;
15110;SDS011;7656;51.954;7.998;2022-12-07T22:54:00;8.17;;;4.93;;
15110;SDS011;7656;51.954;7.998;2022-12-07T22:58:23;10.83;;;5.67;;
15110;SDS011;7656;51.954;7.998;2022-12-07T23:02:46;11.03;;;5.40;;
15110;SDS011;7656;51.954;7.998;2022-12-07T23:07:07;6.93;;;5.03;;
15110;SDS011;7656;51.954;7.998;2022-12-07T23:11:29;9.17;;;5.03;;
15110;SDS011;7656;51.954;7.998;2022-12-07T23:16:13;5.60;;;4.93;;
15110;SDS011;7656;51.954;7.998;2022-12-07T23:20:35;8.03;;;5.00;;
15110;SDS011;7656;51.954;7.998;2022-12-07T23:24:56;8.47;;;6.10;;
15110;SDS011;7656;51.954;7.998;2022-12-07T23:29:17;6.53;;;5.30;;
15110;SDS011;7656;51.954;7.998;2022-12-07T23:33:38;8.00;;;5.47;;
15110;SDS011;7656;51.954;7.998;2022-12-07T23:38:00;7.77;;;5.30;;
15110;SDS011;7656;51.954;7.998;2022-12-07T23:42:21;9.13;;;6.07;;
15110;SDS011;7656;51.954;7.998;2022-12-07T23:46:42;9.30;;;5.93;;
15110;SDS011;7656;51.954;7.998;2022-12-07T23:51:03;9.83;;;5.70;;
15110;SDS011;7656;51.954;7.998;2022-12-07T23:55:25;8.80;;;5.90;;
15110;SDS011;7656;51.954;7.998;2022-12-07T23:59:46;10.03;;;6.47;;
